sensor_id;sensor_type;location;lat;lon;timestamp;P1;durP1;ratioP1;P2;durP2;ratioP2
59653;SDS011;66556;52.008;5.432;2023-08-01T00:02:02;5.3;;;1.5;;
59653;SDS011;66556;52.008;5.432;2023-08-01T00:03:38;4.91;;;1.4;;
59653;SDS011;66556;52.008;5.432;2023-08-01T00:05:15;4.0;;;1.7;;
59653;SDS011;66556;52.008;5.432;2023-08-01T00:08:27;5.11;;;1.9;;
59653;SDS011;66556;52.008;5.432;2023-08-01T00:10:03;4.41;;;1.7;;
59653;SDS011;66556;52.008;5.432;2023-08-01T00:11:40;3.3;;;1.7;;
59653;SDS011;66556;52.008;5.432;2023-08-01T00:14:52;4.91;;;1.8;;
59653;SDS011;66556;52.008;5.432;2023-08-01T00:16:28;5.4;;;1.8;;
59653;SDS011;66556;52.008;5.432;2023-08-01T00:18:04;4.3;;;2.0;;
59653;SDS011;66556;52.008;5.432;2023-08-01T00:19:41;4.2;;;2.1;;
59653;SDS011;66556;52.008;5.432;2023-08-01T00:22:53;5.4;;;2.4;;
59653;SDS011;66556;52.008;5.432;2023-08-01T00:24:29;6.0;;;2.5;;
59653;SDS011;66556;52.008;5.432;2023-08-01T00:26:05;6.7;;;2.7;;
59653;SDS011;66556;52.008;5.432;2023-08-01T00:40:42;7.2;;;3.0;;
59653;SDS011;66556;52.008;5.432;2023-08-01T00:42:18;8.4;;;3.1;;
59653;SDS011;66556;52.008;5.432;2023-08-01T00:45:30;7.4;;;3.3;;
59653;SDS011;66556;52.008;5.432;2023-08-01T00:47:06;6.4;;;3.4;;
59653;SDS011;66556;52.008;5.432;2023-08-01T00:48:42;6.9;;;3.5;;
59653;SDS011;66556;52.008;5.432;2023-08-01T00:51:54;7.0;;;3.5;;
59653;SDS011;66556;52.008;5.432;2023-08-01T00:53:31;5.0;;;3.1;;
59653;SDS011;66556;52.008;5.432;2023-08-01T00:55:08;6.8;;;3.3;;
59653;SDS011;66556;52.008;5.432;2023-08-01T00:56:44;6.5;;;2.9;;
59653;SDS011;66556;52.008;5.432;2023-08-01T00:59:56;8.1;;;3.4;;
59653;SDS011;66556;52.008;5.432;2023-08-01T01:01:32;5.4;;;3.3;;
59653;SDS011;66556;52.008;5.432;2023-08-01T01:03:08;8.1;;;3.6;;
59653;SDS011;66556;52.008;5.432;2023-08-01T01:06:22;6.1;;;3.2;;
59653;SDS011;66556;52.008;5.432;2023-08-01T01:08:02;7.6;;;3.4;;
59653;SDS011;66556;52.008;5.432;2023-08-01T01:09:40;6.0;;;3.2;;
59653;SDS011;66556;52.008;5.432;2023-08-01T01:12:53;5.3;;;3.2;;
59653;SDS011;66556;52.008;5.432;2023-08-01T01:14:29;6.2;;;3.6;;
59653;SDS011;66556;52.008;5.432;2023-08-01T01:16:05;6.8;;;3.4;;
59653;SDS011;66556;52.008;5.432;2023-08-01T01:17:41;9.0;;;4.0;;
59653;SDS011;66556;52.008;5.432;2023-08-01T01:20:53;5.2;;;3.5;;
59653;SDS011;66556;52.008;5.432;2023-08-01T01:22:29;7.2;;;3.7;;
59653;SDS011;66556;52.008;5.432;2023-08-01T01:24:07;7.6;;;4.3;;
59653;SDS011;66556;52.008;5.432;2023-08-01T01:27:23;11.3;;;3.2;;
59653;SDS011;66556;52.008;5.432;2023-08-01T01:29:01;7.4;;;3.4;;
59653;SDS011;66556;52.008;5.432;2023-08-01T01:30:39;7.1;;;3.2;;
59653;SDS011;66556;52.008;5.432;2023-08-01T01:32:17;3.6;;;2.7;;
59653;SDS011;66556;52.008;5.432;2023-08-01T01:35:32;4.3;;;3.3;;
59653;SDS011;66556;52.008;5.432;2023-08-01T01:37:09;6.1;;;3.9;;
59653;SDS011;66556;52.008;5.432;2023-08-01T01:38:45;8.0;;;4.41;;
59653;SDS011;66556;52.008;5.432;2023-08-01T01:41:57;5.6;;;3.7;;
59653;SDS011;66556;52.008;5.432;2023-08-01T01:43:33;7.1;;;4.1;;
59653;SDS011;66556;52.008;5.432;2023-08-01T01:45:09;7.0;;;3.7;;
59653;SDS011;66556;52.008;5.432;2023-08-01T01:48:22;8.4;;;3.5;;
59653;SDS011;66556;52.008;5.432;2023-08-01T01:49:58;4.91;;;2.9;;
59653;SDS011;66556;52.008;5.432;2023-08-01T01:51:35;6.8;;;3.5;;
59653;SDS011;66556;52.008;5.432;2023-08-01T01:53:11;6.8;;;3.5;;
59653;SDS011;66556;52.008;5.432;2023-08-01T01:56:23;8.1;;;3.8;;
59653;SDS011;66556;52.008;5.432;2023-08-01T01:57:59;7.7;;;3.4;;
59653;SDS011;66556;52.008;5.432;2023-08-01T01:59:35;6.9;;;3.6;;
59653;SDS011;66556;52.008;5.432;2023-08-01T02:02:47;10.5;;;4.41;;
59653;SDS011;66556;52.008;5.432;2023-08-01T02:04:24;8.1;;;3.6;;
59653;SDS011;66556;52.008;5.432;2023-08-01T02:06:00;9.0;;;3.8;;
59653;SDS011;66556;52.008;5.432;2023-08-01T02:09:12;9.81;;;3.8;;
59653;SDS011;66556;52.008;5.432;2023-08-01T02:10:48;8.81;;;3.9;;
59653;SDS011;66556;52.008;5.432;2023-08-01T02:12:24;11.4;;;4.2;;
59653;SDS011;66556;52.008;5.432;2023-08-01T02:15:36;11.0;;;3.8;;
59653;SDS011;66556;52.008;5.432;2023-08-01T02:17:12;9.0;;;3.8;;
59653;SDS011;66556;52.008;5.432;2023-08-01T02:18:48;9.21;;;3.5;;
59653;SDS011;66556;52.008;5.432;2023-08-01T02:20:24;7.7;;;3.6;;
59653;SDS011;66556;52.008;5.432;2023-08-01T02:23:37;9.9;;;3.3;;
59653;SDS011;66556;52.008;5.432;2023-08-01T02:25:13;8.81;;;3.1;;
59653;SDS011;66556;52.008;5.432;2023-08-01T02:26:49;7.3;;;3.5;;
59653;SDS011;66556;52.008;5.432;2023-08-01T02:30:02;8.2;;;3.2;;
59653;SDS011;66556;52.008;5.432;2023-08-01T02:31:38;8.0;;;3.3;;
59653;SDS011;66556;52.008;5.432;2023-08-01T02:33:14;13.1;;;3.3;;
59653;SDS011;66556;52.008;5.432;2023-08-01T02:36:26;9.4;;;3.1;;
59653;SDS011;66556;52.008;5.432;2023-08-01T02:38:03;8.5;;;2.7;;
59653;SDS011;66556;52.008;5.432;2023-08-01T02:39:39;8.71;;;2.9;;
59653;SDS011;66556;52.008;5.432;2023-08-01T02:42:51;8.71;;;2.8;;
59653;SDS011;66556;52.008;5.432;2023-08-01T02:44:27;9.81;;;3.1;;
59653;SDS011;66556;52.008;5.432;2023-08-01T02:46:05;7.7;;;2.6;;
59653;SDS011;66556;52.008;5.432;2023-08-01T02:47:41;6.3;;;2.5;;
59653;SDS011;66556;52.008;5.432;2023-08-01T02:50:53;8.31;;;2.8;;
59653;SDS011;66556;52.008;5.432;2023-08-01T02:52:30;6.8;;;2.21;;
59653;SDS011;66556;52.008;5.432;2023-08-01T02:54:07;10.0;;;2.6;;
59653;SDS011;66556;52.008;5.432;2023-08-01T02:57:20;7.7;;;2.21;;
59653;SDS011;66556;52.008;5.432;2023-08-01T02:58:56;7.7;;;2.21;;
59653;SDS011;66556;52.008;5.432;2023-08-01T03:00:32;10.6;;;2.7;;
59653;SDS011;66556;52.008;5.432;2023-08-01T03:03:44;11.5;;;2.8;;
59653;SDS011;66556;52.008;5.432;2023-08-01T03:05:20;8.4;;;2.21;;
59653;SDS011;66556;52.008;5.432;2023-08-01T03:06:56;4.61;;;2.0;;
59653;SDS011;66556;52.008;5.432;2023-08-01T03:08:32;14.4;;;3.0;;
59653;SDS011;66556;52.008;5.432;2023-08-01T03:11:45;10.5;;;2.4;;
59653;SDS011;66556;52.008;5.432;2023-08-01T03:13:21;8.2;;;2.4;;
59653;SDS011;66556;52.008;5.432;2023-08-01T03:14:57;8.5;;;2.31;;
59653;SDS011;66556;52.008;5.432;2023-08-01T03:18:09;9.31;;;2.21;;
59653;SDS011;66556;52.008;5.432;2023-08-01T03:19:45;8.4;;;2.5;;
59653;SDS011;66556;52.008;5.432;2023-08-01T03:21:21;7.7;;;2.31;;
59653;SDS011;66556;52.008;5.432;2023-08-01T03:24:33;9.0;;;2.31;;
59653;SDS011;66556;52.008;5.432;2023-08-01T03:26:09;10.4;;;2.4;;
59653;SDS011;66556;52.008;5.432;2023-08-01T03:27:46;8.2;;;2.21;;
59653;SDS011;66556;52.008;5.432;2023-08-01T03:30:58;8.2;;;2.5;;
59653;SDS011;66556;52.008;5.432;2023-08-01T03:32:34;10.7;;;2.9;;
59653;SDS011;66556;52.008;5.432;2023-08-01T03:34:10;7.3;;;2.5;;
59653;SDS011;66556;52.008;5.432;2023-08-01T03:35:46;7.8;;;2.5;;
59653;SDS011;66556;52.008;5.432;2023-08-01T03:38:58;10.3;;;2.4;;
59653;SDS011;66556;52.008;5.432;2023-08-01T03:40:34;7.9;;;2.7;;
59653;SDS011;66556;52.008;5.432;2023-08-01T03:42:10;7.9;;;2.5;;
59653;SDS011;66556;52.008;5.432;2023-08-01T03:45:22;7.3;;;2.4;;
59653;SDS011;66556;52.008;5.432;2023-08-01T03:46:59;7.6;;;2.6;;
59653;SDS011;66556;52.008;5.432;2023-08-01T03:48:35;9.1;;;2.7;;
59653;SDS011;66556;52.008;5.432;2023-08-01T03:51:47;6.2;;;2.31;;
59653;SDS011;66556;52.008;5.432;2023-08-01T03:53:23;7.0;;;2.8;;
59653;SDS011;66556;52.008;5.432;2023-08-01T03:54:59;8.5;;;3.4;;
59653;SDS011;66556;52.008;5.432;2023-08-01T03:56:35;7.3;;;2.5;;
59653;SDS011;66556;52.008;5.432;2023-08-01T03:59:47;9.81;;;2.7;;
59653;SDS011;66556;52.008;5.432;2023-08-01T04:01:23;7.7;;;2.7;;
59653;SDS011;66556;52.008;5.432;2023-08-01T04:03:00;9.0;;;2.8;;
59653;SDS011;66556;52.008;5.432;2023-08-01T04:06:13;7.0;;;2.6;;
59653;SDS011;66556;52.008;5.432;2023-08-01T04:07:49;8.71;;;2.4;;
59653;SDS011;66556;52.008;5.432;2023-08-01T04:09:25;6.6;;;2.6;;
59653;SDS011;66556;52.008;5.432;2023-08-01T04:12:37;8.1;;;2.6;;
59653;SDS011;66556;52.008;5.432;2023-08-01T04:14:13;7.4;;;2.31;;
59653;SDS011;66556;52.008;5.432;2023-08-01T04:15:49;8.9;;;2.7;;
59653;SDS011;66556;52.008;5.432;2023-08-01T04:19:02;8.1;;;2.9;;
59653;SDS011;66556;52.008;5.432;2023-08-01T04:20:39;10.4;;;2.8;;
59653;SDS011;66556;52.008;5.432;2023-08-01T04:22:15;8.31;;;3.0;;
59653;SDS011;66556;52.008;5.432;2023-08-01T04:23:51;13.4;;;3.5;;
59653;SDS011;66556;52.008;5.432;2023-08-01T04:27:03;8.1;;;2.8;;
59653;SDS011;66556;52.008;5.432;2023-08-01T04:28:40;7.4;;;2.7;;
59653;SDS011;66556;52.008;5.432;2023-08-01T04:30:16;8.71;;;2.8;;
59653;SDS011;66556;52.008;5.432;2023-08-01T04:33:29;9.81;;;2.9;;
59653;SDS011;66556;52.008;5.432;2023-08-01T04:35:05;8.0;;;2.9;;
59653;SDS011;66556;52.008;5.432;2023-08-01T04:36:42;11.0;;;3.0;;
59653;SDS011;66556;52.008;5.432;2023-08-01T04:39:54;9.5;;;2.9;;
59653;SDS011;66556;52.008;5.432;2023-08-01T04:41:30;8.71;;;2.9;;
59653;SDS011;66556;52.008;5.432;2023-08-01T04:43:06;9.31;;;2.8;;
59653;SDS011;66556;52.008;5.432;2023-08-01T04:46:18;8.9;;;3.0;;
59653;SDS011;66556;52.008;5.432;2023-08-01T04:47:55;9.5;;;2.8;;
59653;SDS011;66556;52.008;5.432;2023-08-01T04:49:31;7.2;;;2.8;;
59653;SDS011;66556;52.008;5.432;2023-08-01T04:51:07;8.31;;;3.0;;
59653;SDS011;66556;52.008;5.432;2023-08-01T04:54:19;6.7;;;2.9;;
59653;SDS011;66556;52.008;5.432;2023-08-01T04:55:55;6.7;;;2.9;;
59653;SDS011;66556;52.008;5.432;2023-08-01T04:57:31;10.1;;;2.8;;
59653;SDS011;66556;52.008;5.432;2023-08-01T05:00:43;8.0;;;2.7;;
59653;SDS011;66556;52.008;5.432;2023-08-01T05:02:20;10.8;;;2.9;;
59653;SDS011;66556;52.008;5.432;2023-08-01T05:03:55;8.81;;;2.9;;
59653;SDS011;66556;52.008;5.432;2023-08-01T05:07:07;8.0;;;3.1;;
59653;SDS011;66556;52.008;5.432;2023-08-01T05:08:43;10.7;;;3.2;;
59653;SDS011;66556;52.008;5.432;2023-08-01T05:10:19;8.2;;;3.1;;
59653;SDS011;66556;52.008;5.432;2023-08-01T05:13:31;12.1;;;3.4;;
59653;SDS011;66556;52.008;5.432;2023-08-01T05:15:08;10.9;;;3.1;;
59653;SDS011;66556;52.008;5.432;2023-08-01T05:16:44;13.0;;;3.5;;
59653;SDS011;66556;52.008;5.432;2023-08-01T05:18:20;10.3;;;3.0;;
59653;SDS011;66556;52.008;5.432;2023-08-01T05:21:32;10.9;;;3.2;;
59653;SDS011;66556;52.008;5.432;2023-08-01T05:23:08;12.8;;;3.3;;
59653;SDS011;66556;52.008;5.432;2023-08-01T05:24:45;13.4;;;3.3;;
59653;SDS011;66556;52.008;5.432;2023-08-01T05:27:57;8.4;;;2.8;;
59653;SDS011;66556;52.008;5.432;2023-08-01T05:29:34;8.9;;;3.1;;
59653;SDS011;66556;52.008;5.432;2023-08-01T05:31:09;9.81;;;3.1;;
59653;SDS011;66556;52.008;5.432;2023-08-01T05:34:22;8.31;;;3.1;;
59653;SDS011;66556;52.008;5.432;2023-08-01T05:35:58;9.0;;;3.0;;
59653;SDS011;66556;52.008;5.432;2023-08-01T05:37:34;8.31;;;2.8;;
59653;SDS011;66556;52.008;5.432;2023-08-01T05:39:10;11.5;;;3.5;;
59653;SDS011;66556;52.008;5.432;2023-08-01T05:42:22;9.5;;;3.2;;
59653;SDS011;66556;52.008;5.432;2023-08-01T05:43:59;10.9;;;3.1;;
59653;SDS011;66556;52.008;5.432;2023-08-01T05:45:35;10.5;;;3.3;;
59653;SDS011;66556;52.008;5.432;2023-08-01T05:48:47;10.21;;;3.4;;
59653;SDS011;66556;52.008;5.432;2023-08-01T05:50:23;12.2;;;3.1;;
59653;SDS011;66556;52.008;5.432;2023-08-01T05:51:59;9.9;;;3.4;;
59653;SDS011;66556;52.008;5.432;2023-08-01T05:55:11;9.71;;;3.5;;
59653;SDS011;66556;52.008;5.432;2023-08-01T05:56:48;11.1;;;3.3;;
59653;SDS011;66556;52.008;5.432;2023-08-01T05:58:24;7.9;;;2.7;;
59653;SDS011;66556;52.008;5.432;2023-08-01T06:01:36;12.0;;;3.3;;
59653;SDS011;66556;52.008;5.432;2023-08-01T06:03:12;9.1;;;3.0;;
59653;SDS011;66556;52.008;5.432;2023-08-01T06:04:48;8.31;;;3.1;;
59653;SDS011;66556;52.008;5.432;2023-08-01T06:06:25;12.8;;;3.5;;
59653;SDS011;66556;52.008;5.432;2023-08-01T06:09:38;8.71;;;3.3;;
59653;SDS011;66556;52.008;5.432;2023-08-01T06:11:14;8.9;;;2.9;;
59653;SDS011;66556;52.008;5.432;2023-08-01T06:12:50;8.9;;;3.1;;
59653;SDS011;66556;52.008;5.432;2023-08-01T06:16:02;11.7;;;3.2;;
59653;SDS011;66556;52.008;5.432;2023-08-01T06:17:38;9.71;;;3.3;;
59653;SDS011;66556;52.008;5.432;2023-08-01T06:19:14;11.1;;;3.5;;
59653;SDS011;66556;52.008;5.432;2023-08-01T06:22:26;8.71;;;3.2;;
59653;SDS011;66556;52.008;5.432;2023-08-01T06:24:03;7.2;;;2.8;;
59653;SDS011;66556;52.008;5.432;2023-08-01T06:25:38;8.0;;;2.8;;
59653;SDS011;66556;52.008;5.432;2023-08-01T06:27:15;11.0;;;3.3;;
59653;SDS011;66556;52.008;5.432;2023-08-01T06:30:28;10.21;;;3.1;;
59653;SDS011;66556;52.008;5.432;2023-08-01T06:32:04;7.6;;;2.6;;
59653;SDS011;66556;52.008;5.432;2023-08-01T06:33:41;9.6;;;2.8;;
59653;SDS011;66556;52.008;5.432;2023-08-01T06:36:53;9.31;;;2.8;;
59653;SDS011;66556;52.008;5.432;2023-08-01T06:38:29;13.4;;;2.6;;
59653;SDS011;66556;52.008;5.432;2023-08-01T06:40:06;7.3;;;2.5;;
59653;SDS011;66556;52.008;5.432;2023-08-01T06:43:19;7.8;;;2.31;;
59653;SDS011;66556;52.008;5.432;2023-08-01T06:44:55;12.0;;;2.7;;
59653;SDS011;66556;52.008;5.432;2023-08-01T06:46:30;6.8;;;2.1;;
59653;SDS011;66556;52.008;5.432;2023-08-01T06:49:43;9.21;;;2.4;;
59653;SDS011;66556;52.008;5.432;2023-08-01T06:51:18;9.0;;;2.6;;
59653;SDS011;66556;52.008;5.432;2023-08-01T06:52:55;9.6;;;2.4;;
59653;SDS011;66556;52.008;5.432;2023-08-01T06:54:32;8.2;;;2.5;;
59653;SDS011;66556;52.008;5.432;2023-08-01T06:57:44;6.8;;;2.5;;
59653;SDS011;66556;52.008;5.432;2023-08-01T06:59:20;8.2;;;2.5;;
59653;SDS011;66556;52.008;5.432;2023-08-01T07:00:56;9.6;;;2.7;;
59653;SDS011;66556;52.008;5.432;2023-08-01T07:04:09;6.6;;;2.5;;
59653;SDS011;66556;52.008;5.432;2023-08-01T07:05:45;7.2;;;2.5;;
59653;SDS011;66556;52.008;5.432;2023-08-01T07:07:22;5.7;;;2.21;;
59653;SDS011;66556;52.008;5.432;2023-08-01T07:10:34;6.4;;;2.21;;
59653;SDS011;66556;52.008;5.432;2023-08-01T07:13:47;9.9;;;2.21;;
59653;SDS011;66556;52.008;5.432;2023-08-01T07:15:23;6.0;;;2.0;;
59653;SDS011;66556;52.008;5.432;2023-08-01T07:18:35;8.31;;;2.21;;
59653;SDS011;66556;52.008;5.432;2023-08-01T07:20:11;6.1;;;2.5;;
59653;SDS011;66556;52.008;5.432;2023-08-01T07:21:47;6.9;;;2.21;;
59653;SDS011;66556;52.008;5.432;2023-08-01T07:24:59;7.9;;;2.1;;
59653;SDS011;66556;52.008;5.432;2023-08-01T07:26:36;11.1;;;2.21;;
59653;SDS011;66556;52.008;5.432;2023-08-01T07:28:12;6.8;;;1.6;;
59653;SDS011;66556;52.008;5.432;2023-08-01T07:31:24;7.2;;;1.9;;
59653;SDS011;66556;52.008;5.432;2023-08-01T07:33:00;8.81;;;1.8;;
59653;SDS011;66556;52.008;5.432;2023-08-01T07:34:36;5.5;;;2.31;;
59653;SDS011;66556;52.008;5.432;2023-08-01T07:37:48;5.4;;;2.1;;
59653;SDS011;66556;52.008;5.432;2023-08-01T07:39:24;7.2;;;1.9;;
59653;SDS011;66556;52.008;5.432;2023-08-01T07:41:02;9.21;;;2.21;;
59653;SDS011;66556;52.008;5.432;2023-08-01T07:42:39;8.5;;;2.21;;
59653;SDS011;66556;52.008;5.432;2023-08-01T07:45:54;7.3;;;2.1;;
59653;SDS011;66556;52.008;5.432;2023-08-01T07:47:32;6.5;;;1.8;;
59653;SDS011;66556;52.008;5.432;2023-08-01T07:49:08;6.8;;;1.8;;
59653;SDS011;66556;52.008;5.432;2023-08-01T07:52:21;6.8;;;1.7;;
59653;SDS011;66556;52.008;5.432;2023-08-01T07:53:57;6.6;;;1.8;;
59653;SDS011;66556;52.008;5.432;2023-08-01T07:55:33;5.8;;;1.7;;
59653;SDS011;66556;52.008;5.432;2023-08-01T07:57:10;6.4;;;2.4;;
59653;SDS011;66556;52.008;5.432;2023-08-01T08:00:23;6.8;;;2.0;;
59653;SDS011;66556;52.008;5.432;2023-08-01T08:01:59;9.0;;;2.31;;
59653;SDS011;66556;52.008;5.432;2023-08-01T08:03:35;9.0;;;2.4;;
59653;SDS011;66556;52.008;5.432;2023-08-01T08:06:47;7.6;;;2.21;;
59653;SDS011;66556;52.008;5.432;2023-08-01T08:08:24;8.4;;;2.4;;
59653;SDS011;66556;52.008;5.432;2023-08-01T08:10:00;7.3;;;1.7;;
59653;SDS011;66556;52.008;5.432;2023-08-01T08:13:12;8.0;;;1.7;;
59653;SDS011;66556;52.008;5.432;2023-08-01T08:14:48;8.5;;;2.1;;
59653;SDS011;66556;52.008;5.432;2023-08-01T08:16:24;7.3;;;1.7;;
59653;SDS011;66556;52.008;5.432;2023-08-01T08:19:37;5.6;;;1.9;;
59653;SDS011;66556;52.008;5.432;2023-08-01T08:21:13;5.5;;;1.8;;
59653;SDS011;66556;52.008;5.432;2023-08-01T08:22:49;5.7;;;1.6;;
59653;SDS011;66556;52.008;5.432;2023-08-01T08:24:26;6.5;;;1.9;;
59653;SDS011;66556;52.008;5.432;2023-08-01T08:27:38;7.3;;;1.7;;
59653;SDS011;66556;52.008;5.432;2023-08-01T08:29:15;7.8;;;1.7;;
59653;SDS011;66556;52.008;5.432;2023-08-01T08:30:51;7.8;;;1.7;;
59653;SDS011;66556;52.008;5.432;2023-08-01T08:34:03;6.3;;;1.7;;
59653;SDS011;66556;52.008;5.432;2023-08-01T08:35:39;6.0;;;1.4;;
59653;SDS011;66556;52.008;5.432;2023-08-01T08:37:16;4.61;;;1.6;;
59653;SDS011;66556;52.008;5.432;2023-08-01T08:40:28;7.2;;;1.9;;
59653;SDS011;66556;52.008;5.432;2023-08-01T08:42:04;5.7;;;1.4;;
59653;SDS011;66556;52.008;5.432;2023-08-01T08:43:41;4.61;;;1.5;;
59653;SDS011;66556;52.008;5.432;2023-08-01T08:45:18;4.1;;;1.2;;
59653;SDS011;66556;52.008;5.432;2023-08-01T08:48:39;4.91;;;1.5;;
59653;SDS011;66556;52.008;5.432;2023-08-01T08:50:16;4.61;;;1.11;;
59653;SDS011;66556;52.008;5.432;2023-08-01T08:51:54;4.7;;;1.3;;
59653;SDS011;66556;52.008;5.432;2023-08-01T08:55:08;5.0;;;1.3;;
59653;SDS011;66556;52.008;5.432;2023-08-01T08:56:45;4.7;;;1.0;;
59653;SDS011;66556;52.008;5.432;2023-08-01T08:58:22;6.0;;;1.5;;
59653;SDS011;66556;52.008;5.432;2023-08-01T08:59:59;4.8;;;1.3;;
59653;SDS011;66556;52.008;5.432;2023-08-01T09:03:16;7.4;;;1.7;;
59653;SDS011;66556;52.008;5.432;2023-08-01T09:04:52;4.1;;;1.3;;
59653;SDS011;66556;52.008;5.432;2023-08-01T09:06:30;4.91;;;1.2;;
59653;SDS011;66556;52.008;5.432;2023-08-01T09:09:55;5.7;;;1.2;;
59653;SDS011;66556;52.008;5.432;2023-08-01T09:11:37;4.91;;;1.3;;
59653;SDS011;66556;52.008;5.432;2023-08-01T09:13:17;4.7;;;1.11;;
59653;SDS011;66556;52.008;5.432;2023-08-01T09:14:54;5.6;;;1.3;;
59653;SDS011;66556;52.008;5.432;2023-08-01T09:18:09;4.1;;;1.3;;
59653;SDS011;66556;52.008;5.432;2023-08-01T09:19:45;5.3;;;1.11;;
59653;SDS011;66556;52.008;5.432;2023-08-01T09:21:21;4.2;;;1.5;;
59653;SDS011;66556;52.008;5.432;2023-08-01T09:22:58;5.2;;;1.5;;
59653;SDS011;66556;52.008;5.432;2023-08-01T09:26:12;6.8;;;1.5;;
59653;SDS011;66556;52.008;5.432;2023-08-01T09:27:49;5.8;;;1.4;;
59653;SDS011;66556;52.008;5.432;2023-08-01T09:29:25;8.6;;;1.8;;
59653;SDS011;66556;52.008;5.432;2023-08-01T09:32:37;5.0;;;1.4;;
59653;SDS011;66556;52.008;5.432;2023-08-01T09:34:18;4.1;;;1.2;;
59653;SDS011;66556;52.008;5.432;2023-08-01T09:35:55;5.8;;;1.5;;
59653;SDS011;66556;52.008;5.432;2023-08-01T09:39:17;5.6;;;1.7;;
59653;SDS011;66556;52.008;5.432;2023-08-01T09:40:54;5.0;;;1.3;;
59653;SDS011;66556;52.008;5.432;2023-08-01T09:42:37;6.8;;;1.4;;
59653;SDS011;66556;52.008;5.432;2023-08-01T09:44:15;7.8;;;1.9;;
59653;SDS011;66556;52.008;5.432;2023-08-01T09:47:35;6.3;;;1.3;;
59653;SDS011;66556;52.008;5.432;2023-08-01T09:49:12;6.0;;;2.0;;
59653;SDS011;66556;52.008;5.432;2023-08-01T09:50:49;5.11;;;1.5;;
59653;SDS011;66556;52.008;5.432;2023-08-01T09:52:27;7.6;;;1.4;;
59653;SDS011;66556;52.008;5.432;2023-08-01T09:55:39;7.6;;;1.4;;
59653;SDS011;66556;52.008;5.432;2023-08-01T09:57:19;5.8;;;1.6;;
59653;SDS011;66556;52.008;5.432;2023-08-01T09:58:58;5.3;;;1.5;;
59653;SDS011;66556;52.008;5.432;2023-08-01T10:00:36;5.3;;;1.7;;
59653;SDS011;66556;52.008;5.432;2023-08-01T10:03:55;4.8;;;1.3;;
59653;SDS011;66556;52.008;5.432;2023-08-01T10:05:32;4.8;;;1.4;;
59653;SDS011;66556;52.008;5.432;2023-08-01T10:07:11;8.71;;;1.7;;
59653;SDS011;66556;52.008;5.432;2023-08-01T10:10:28;5.11;;;1.4;;
59653;SDS011;66556;52.008;5.432;2023-08-01T10:12:06;4.41;;;1.2;;
59653;SDS011;66556;52.008;5.432;2023-08-01T10:13:45;4.0;;;1.3;;
59653;SDS011;66556;52.008;5.432;2023-08-01T10:15:22;5.0;;;1.3;;
59653;SDS011;66556;52.008;5.432;2023-08-01T10:18:38;3.7;;;1.2;;
59653;SDS011;66556;52.008;5.432;2023-08-01T10:20:15;9.4;;;1.6;;
59653;SDS011;66556;52.008;5.432;2023-08-01T10:21:52;6.8;;;1.4;;
59653;SDS011;66556;52.008;5.432;2023-08-01T10:25:07;6.2;;;1.5;;
59653;SDS011;66556;52.008;5.432;2023-08-01T10:26:44;3.2;;;1.2;;
59653;SDS011;66556;52.008;5.432;2023-08-01T10:28:30;6.2;;;1.5;;
59653;SDS011;66556;52.008;5.432;2023-08-01T10:30:07;5.7;;;1.4;;
59653;SDS011;66556;52.008;5.432;2023-08-01T10:33:32;5.8;;;1.8;;
59653;SDS011;66556;52.008;5.432;2023-08-01T10:35:09;3.5;;;1.3;;
59653;SDS011;66556;52.008;5.432;2023-08-01T10:36:52;3.7;;;1.11;;
59653;SDS011;66556;52.008;5.432;2023-08-01T10:38:30;8.0;;;1.3;;
59653;SDS011;66556;52.008;5.432;2023-08-01T10:41:43;4.7;;;1.4;;
59653;SDS011;66556;52.008;5.432;2023-08-01T10:43:20;4.3;;;1.0;;
59653;SDS011;66556;52.008;5.432;2023-08-01T10:44:57;4.0;;;1.11;;
59653;SDS011;66556;52.008;5.432;2023-08-01T10:48:26;5.11;;;1.0;;
59653;SDS011;66556;52.008;5.432;2023-08-01T10:50:02;5.5;;;1.5;;
59653;SDS011;66556;52.008;5.432;2023-08-01T10:51:50;6.1;;;1.6;;
59653;SDS011;66556;52.008;5.432;2023-08-01T10:53:36;4.8;;;1.11;;
59653;SDS011;66556;52.008;5.432;2023-08-01T10:55:13;3.6;;;0.8;;
59653;SDS011;66556;52.008;5.432;2023-08-01T10:58:32;4.3;;;1.11;;
59653;SDS011;66556;52.008;5.432;2023-08-01T11:00:09;4.1;;;0.8;;
59653;SDS011;66556;52.008;5.432;2023-08-01T11:01:45;4.0;;;1.5;;
59653;SDS011;66556;52.008;5.432;2023-08-01T11:03:25;3.6;;;1.11;;
59653;SDS011;66556;52.008;5.432;2023-08-01T11:06:48;4.7;;;1.5;;
59653;SDS011;66556;52.008;5.432;2023-08-01T11:08:33;5.5;;;1.0;;
59653;SDS011;66556;52.008;5.432;2023-08-01T11:10:11;5.5;;;1.2;;
59653;SDS011;66556;52.008;5.432;2023-08-01T11:11:50;5.5;;;1.2;;
59653;SDS011;66556;52.008;5.432;2023-08-01T11:15:04;5.8;;;1.6;;
59653;SDS011;66556;52.008;5.432;2023-08-01T11:16:42;4.3;;;1.11;;
59653;SDS011;66556;52.008;5.432;2023-08-01T11:18:19;5.11;;;1.2;;
59653;SDS011;66556;52.008;5.432;2023-08-01T11:21:52;4.2;;;1.3;;
59653;SDS011;66556;52.008;5.432;2023-08-01T11:23:30;6.2;;;1.2;;
59653;SDS011;66556;52.008;5.432;2023-08-01T11:25:06;2.9;;;1.11;;
59653;SDS011;66556;52.008;5.432;2023-08-01T11:26:43;6.5;;;1.2;;
59653;SDS011;66556;52.008;5.432;2023-08-01T11:29:57;4.41;;;1.2;;
59653;SDS011;66556;52.008;5.432;2023-08-01T11:31:33;5.11;;;1.2;;
59653;SDS011;66556;52.008;5.432;2023-08-01T11:33:17;4.61;;;1.2;;
59653;SDS011;66556;52.008;5.432;2023-08-01T11:34:55;5.5;;;1.4;;
59653;SDS011;66556;52.008;5.432;2023-08-01T11:38:08;5.6;;;1.2;;
59653;SDS011;66556;52.008;5.432;2023-08-01T11:39:44;4.0;;;1.4;;
59653;SDS011;66556;52.008;5.432;2023-08-01T11:41:22;3.0;;;1.11;;
59653;SDS011;66556;52.008;5.432;2023-08-01T11:44:35;4.3;;;1.11;;
59653;SDS011;66556;52.008;5.432;2023-08-01T11:46:12;4.7;;;1.2;;
59653;SDS011;66556;52.008;5.432;2023-08-01T11:47:48;4.91;;;1.2;;
59653;SDS011;66556;52.008;5.432;2023-08-01T11:49:25;5.2;;;1.0;;
59653;SDS011;66556;52.008;5.432;2023-08-01T11:52:38;8.2;;;1.5;;
59653;SDS011;66556;52.008;5.432;2023-08-01T11:54:14;5.2;;;1.4;;
59653;SDS011;66556;52.008;5.432;2023-08-01T11:55:51;4.41;;;1.11;;
59653;SDS011;66556;52.008;5.432;2023-08-01T11:59:11;3.4;;;1.11;;
59653;SDS011;66556;52.008;5.432;2023-08-01T12:00:49;6.0;;;1.3;;
59653;SDS011;66556;52.008;5.432;2023-08-01T12:02:25;5.2;;;1.3;;
59653;SDS011;66556;52.008;5.432;2023-08-01T12:04:03;5.3;;;1.2;;
59653;SDS011;66556;52.008;5.432;2023-08-01T12:07:16;5.4;;;1.2;;
59653;SDS011;66556;52.008;5.432;2023-08-01T12:08:52;5.7;;;1.3;;
59653;SDS011;66556;52.008;5.432;2023-08-01T12:10:36;6.8;;;1.6;;
59653;SDS011;66556;52.008;5.432;2023-08-01T12:14:00;6.4;;;1.0;;
59653;SDS011;66556;52.008;5.432;2023-08-01T12:17:13;8.31;;;1.4;;
59653;SDS011;66556;52.008;5.432;2023-08-01T12:18:50;6.5;;;1.3;;
59653;SDS011;66556;52.008;5.432;2023-08-01T12:22:02;6.2;;;1.5;;
59653;SDS011;66556;52.008;5.432;2023-08-01T12:23:39;6.0;;;1.5;;
59653;SDS011;66556;52.008;5.432;2023-08-01T12:25:15;3.8;;;1.11;;
59653;SDS011;66556;52.008;5.432;2023-08-01T12:28:27;4.3;;;1.2;;
59653;SDS011;66556;52.008;5.432;2023-08-01T12:30:04;7.0;;;1.4;;
59653;SDS011;66556;52.008;5.432;2023-08-01T12:31:41;6.9;;;1.5;;
59653;SDS011;66556;52.008;5.432;2023-08-01T12:34:53;5.0;;;1.5;;
59653;SDS011;66556;52.008;5.432;2023-08-01T12:36:29;5.9;;;1.5;;
59653;SDS011;66556;52.008;5.432;2023-08-01T12:38:05;8.2;;;1.6;;
59653;SDS011;66556;52.008;5.432;2023-08-01T12:39:41;5.8;;;1.5;;
59653;SDS011;66556;52.008;5.432;2023-08-01T12:42:53;7.6;;;2.0;;
59653;SDS011;66556;52.008;5.432;2023-08-01T12:44:29;4.91;;;1.7;;
59653;SDS011;66556;52.008;5.432;2023-08-01T12:46:05;6.7;;;1.5;;
59653;SDS011;66556;52.008;5.432;2023-08-01T12:49:18;7.1;;;1.4;;
59653;SDS011;66556;52.008;5.432;2023-08-01T12:50:54;6.0;;;1.3;;
59653;SDS011;66556;52.008;5.432;2023-08-01T12:52:31;5.8;;;1.4;;
59653;SDS011;66556;52.008;5.432;2023-08-01T12:55:43;4.61;;;1.11;;
59653;SDS011;66556;52.008;5.432;2023-08-01T12:57:20;4.5;;;1.11;;
59653;SDS011;66556;52.008;5.432;2023-08-01T12:58:56;5.8;;;1.3;;
59653;SDS011;66556;52.008;5.432;2023-08-01T13:00:33;5.0;;;1.2;;
59653;SDS011;66556;52.008;5.432;2023-08-01T13:03:45;5.0;;;0.9;;
59653;SDS011;66556;52.008;5.432;2023-08-01T13:05:21;5.4;;;1.0;;
59653;SDS011;66556;52.008;5.432;2023-08-01T13:06:57;5.8;;;1.2;;
59653;SDS011;66556;52.008;5.432;2023-08-01T13:10:09;4.5;;;1.0;;
59653;SDS011;66556;52.008;5.432;2023-08-01T13:11:45;4.0;;;1.2;;